sensor_id;sensor_type;location;lat;lon;timestamp;pressure;altitude;pressure_sealevel;temperature;humidity
50854;BME280;44154;45.506;-122.806;2023-04-06T00:01:40;101080.66;;;25.59;30.57
50854;BME280;44154;45.506;-122.806;2023-04-06T00:04:07;101065.19;;;25.48;30.54
50854;BME280;44154;45.506;-122.806;2023-04-06T00:06:33;101067.66;;;25.50;30.82
50854;BME280;44154;45.506;-122.806;2023-04-06T00:09:00;101072.31;;;25.49;30.72
50854;BME280;44154;45.506;-122.806;2023-04-06T00:11:26;101068.44;;;25.45;30.76
50854;BME280;44154;45.506;-122.806;2023-04-06T00:13:53;101066.53;;;25.45;30.92
50854;BME280;44154;45.506;-122.806;2023-04-06T00:16:19;101057.25;;;25.30;30.95
50854;BME280;44154;45.506;-122.806;2023-04-06T00:18:45;101063.56;;;25.30;31.02
50854;BME280;44154;45.506;-122.806;2023-04-06T00:21:13;101062.56;;;25.36;31.02
50854;BME280;44154;45.506;-122.806;2023-04-06T00:23:41;101062.81;;;25.57;30.89
50854;BME280;44154;45.506;-122.806;2023-04-06T00:26:08;101061.66;;;25.75;30.43
50854;BME280;44154;45.506;-122.806;2023-04-06T00:28:34;101058.16;;;25.79;30.65
50854;BME280;44154;45.506;-122.806;2023-04-06T00:31:01;101059.22;;;25.78;30.31
50854;BME280;44154;45.506;-122.806;2023-04-06T00:33:27;101052.63;;;25.74;30.34
50854;BME280;44154;45.506;-122.806;2023-04-06T00:35:53;101038.75;;;25.59;30.41
50854;BME280;44154;45.506;-122.806;2023-04-06T00:38:19;101048.38;;;25.61;30.29
50854;BME280;44154;45.506;-122.806;2023-04-06T00:40:45;101052.59;;;25.47;30.11
50854;BME280;44154;45.506;-122.806;2023-04-06T00:43:12;101045.94;;;25.43;30.76
50854;BME280;44154;45.506;-122.806;2023-04-06T00:45:39;101041.81;;;25.40;30.58
50854;BME280;44154;45.506;-122.806;2023-04-06T00:48:06;101039.63;;;25.42;30.96
50854;BME280;44154;45.506;-122.806;2023-04-06T00:50:32;101037.66;;;25.38;30.80
50854;BME280;44154;45.506;-122.806;2023-04-06T00:52:59;101039.66;;;25.25;31.43
50854;BME280;44154;45.506;-122.806;2023-04-06T00:55:29;101041.31;;;25.26;31.19
50854;BME280;44154;45.506;-122.806;2023-04-06T00:57:57;101032.00;;;25.27;31.38
50854;BME280;44154;45.506;-122.806;2023-04-06T01:00:24;101023.75;;;25.22;31.56
50854;BME280;44154;45.506;-122.806;2023-04-06T01:02:51;101031.50;;;25.31;31.52
50854;BME280;44154;45.506;-122.806;2023-04-06T01:05:17;101027.72;;;25.32;31.24
50854;BME280;44154;45.506;-122.806;2023-04-06T01:07:43;101024.16;;;25.31;31.46
50854;BME280;44154;45.506;-122.806;2023-04-06T01:10:09;101021.41;;;25.31;31.07
50854;BME280;44154;45.506;-122.806;2023-04-06T01:12:35;101025.22;;;25.30;31.41
50854;BME280;44154;45.506;-122.806;2023-04-06T01:15:04;101016.91;;;25.25;31.40
50854;BME280;44154;45.506;-122.806;2023-04-06T01:17:31;101015.69;;;25.33;31.23
50854;BME280;44154;45.506;-122.806;2023-04-06T01:19:58;101022.53;;;25.35;31.28
50854;BME280;44154;45.506;-122.806;2023-04-06T01:22:24;101013.66;;;25.28;31.21
50854;BME280;44154;45.506;-122.806;2023-04-06T01:24:50;101015.28;;;25.46;31.24
50854;BME280;44154;45.506;-122.806;2023-04-06T01:27:16;101016.38;;;25.67;31.20
50854;BME280;44154;45.506;-122.806;2023-04-06T01:29:43;101011.88;;;25.83;30.55
50854;BME280;44154;45.506;-122.806;2023-04-06T01:32:09;101012.38;;;25.80;30.79
50854;BME280;44154;45.506;-122.806;2023-04-06T01:34:35;101005.53;;;25.83;30.72
50854;BME280;44154;45.506;-122.806;2023-04-06T01:37:01;101004.25;;;25.63;31.14
50854;BME280;44154;45.506;-122.806;2023-04-06T01:39:27;101004.34;;;25.46;32.43
50854;BME280;44154;45.506;-122.806;2023-04-06T01:41:54;101006.25;;;25.45;32.58
50854;BME280;44154;45.506;-122.806;2023-04-06T01:44:20;100997.56;;;25.54;32.32
50854;BME280;44154;45.506;-122.806;2023-04-06T01:46:46;100996.56;;;25.60;32.13
50854;BME280;44154;45.506;-122.806;2023-04-06T01:49:12;100987.75;;;25.58;32.13
50854;BME280;44154;45.506;-122.806;2023-04-06T01:51:39;100981.44;;;25.57;32.28
50854;BME280;44154;45.506;-122.806;2023-04-06T01:54:05;100979.47;;;25.53;32.31
50854;BME280;44154;45.506;-122.806;2023-04-06T01:56:31;100981.13;;;25.54;32.06
50854;BME280;44154;45.506;-122.806;2023-04-06T01:58:57;100973.66;;;25.49;31.71
50854;BME280;44154;45.506;-122.806;2023-04-06T02:01:24;100971.19;;;25.48;32.11
50854;BME280;44154;45.506;-122.806;2023-04-06T02:03:50;100970.88;;;25.44;32.03
50854;BME280;44154;45.506;-122.806;2023-04-06T02:06:16;100968.09;;;25.39;31.94
50854;BME280;44154;45.506;-122.806;2023-04-06T02:08:42;100966.94;;;25.35;32.39
50854;BME280;44154;45.506;-122.806;2023-04-06T02:11:08;100966.94;;;25.35;32.25
50854;BME280;44154;45.506;-122.806;2023-04-06T02:13:34;100956.78;;;25.35;32.42
50854;BME280;44154;45.506;-122.806;2023-04-06T02:16:00;100951.56;;;25.34;32.56
50854;BME280;44154;45.506;-122.806;2023-04-06T02:18:30;100954.78;;;25.31;32.41
50854;BME280;44154;45.506;-122.806;2023-04-06T02:20:56;100949.31;;;25.31;32.14
50854;BME280;44154;45.506;-122.806;2023-04-06T02:23:22;100946.84;;;25.29;32.17
50854;BME280;44154;45.506;-122.806;2023-04-06T02:25:48;100947.69;;;25.30;32.11
50854;BME280;44154;45.506;-122.806;2023-04-06T02:28:14;100944.34;;;25.27;32.27
50854;BME280;44154;45.506;-122.806;2023-04-06T02:30:41;100928.44;;;25.24;32.14
50854;BME280;44154;45.506;-122.806;2023-04-06T02:33:07;100928.44;;;25.24;32.07
50854;BME280;44154;45.506;-122.806;2023-04-06T02:35:33;100925.69;;;25.24;32.13
50854;BME280;44154;45.506;-122.806;2023-04-06T02:37:59;100919.59;;;25.17;32.87
50854;BME280;44154;45.506;-122.806;2023-04-06T02:40:25;100924.19;;;25.11;33.70
50854;BME280;44154;45.506;-122.806;2023-04-06T02:42:51;100924.09;;;25.06;33.27
50854;BME280;44154;45.506;-122.806;2023-04-06T02:45:17;100921.06;;;25.03;33.86
50854;BME280;44154;45.506;-122.806;2023-04-06T02:47:44;100919.41;;;25.02;33.87
50854;BME280;44154;45.506;-122.806;2023-04-06T02:50:10;100910.03;;;24.98;34.20
50854;BME280;44154;45.506;-122.806;2023-04-06T02:52:37;100908.44;;;25.02;34.67
50854;BME280;44154;45.506;-122.806;2023-04-06T02:55:03;100899.16;;;25.03;34.44
50854;BME280;44154;45.506;-122.806;2023-04-06T02:57:29;100906.28;;;25.04;34.88
50854;BME280;44154;45.506;-122.806;2023-04-06T02:59:55;100901.31;;;25.01;34.95
50854;BME280;44154;45.506;-122.806;2023-04-06T03:02:21;100895.28;;;24.99;34.94
50854;BME280;44154;45.506;-122.806;2023-04-06T03:04:48;100891.47;;;25.00;34.30
50854;BME280;44154;45.506;-122.806;2023-04-06T03:07:14;100854.75;;;24.73;34.79
50854;BME280;44154;45.506;-122.806;2023-04-06T03:09:40;100899.59;;;24.94;34.50
50854;BME280;44154;45.506;-122.806;2023-04-06T03:12:06;100891.09;;;24.91;34.59
50854;BME280;44154;45.506;-122.806;2023-04-06T03:14:32;100899.56;;;24.89;34.59
50854;BME280;44154;45.506;-122.806;2023-04-06T03:16:58;100893.22;;;24.89;34.65
50854;BME280;44154;45.506;-122.806;2023-04-06T03:19:25;100892.94;;;24.85;34.30
50854;BME280;44154;45.506;-122.806;2023-04-06T03:21:51;100905.84;;;24.90;34.22
50854;BME280;44154;45.506;-122.806;2023-04-06T03:24:17;100908.31;;;24.91;34.42
50854;BME280;44154;45.506;-122.806;2023-04-06T03:26:43;100905.66;;;24.97;34.13
50854;BME280;44154;45.506;-122.806;2023-04-06T03:29:09;100903.47;;;24.99;34.27
50854;BME280;44154;45.506;-122.806;2023-04-06T03:31:35;100903.47;;;24.99;34.62
50854;BME280;44154;45.506;-122.806;2023-04-06T03:34:01;100904.31;;;24.99;34.44
50854;BME280;44154;45.506;-122.806;2023-04-06T03:36:27;100906.78;;;25.01;34.37
50854;BME280;44154;45.506;-122.806;2023-04-06T03:38:54;100908.44;;;25.02;33.95
50854;BME280;44154;45.506;-122.806;2023-04-06T03:41:20;100907.81;;;24.94;34.07
50854;BME280;44154;45.506;-122.806;2023-04-06T03:43:47;100908.16;;;24.98;33.90
50854;BME280;44154;45.506;-122.806;2023-04-06T03:46:13;100901.78;;;24.92;33.93
50854;BME280;44154;45.506;-122.806;2023-04-06T03:48:40;100905.59;;;24.91;33.84
50854;BME280;44154;45.506;-122.806;2023-04-06T03:51:06;100905.84;;;24.90;33.86
50854;BME280;44154;45.506;-122.806;2023-04-06T03:53:32;100906.09;;;24.88;33.78
50854;BME280;44154;45.506;-122.806;2023-04-06T03:55:58;100905.50;;;24.86;33.95
50854;BME280;44154;45.506;-122.806;2023-04-06T03:58:24;100912.91;;;24.86;33.73
50854;BME280;44154;45.506;-122.806;2023-04-06T04:00:50;100903.63;;;24.87;33.64
50854;BME280;44154;45.506;-122.806;2023-04-06T04:03:16;100905.75;;;24.85;33.75
50854;BME280;44154;45.506;-122.806;2023-04-06T04:05:43;100904.38;;;24.82;33.66
50854;BME280;44154;45.506;-122.806;2023-04-06T04:08:09;100910.34;;;24.79;33.71
50854;BME280;44154;45.506;-122.806;2023-04-06T04:10:35;100907.03;;;24.77;33.54
50854;BME280;44154;45.506;-122.806;2023-04-06T04:13:02;100901.44;;;24.67;33.62
50854;BME280;44154;45.506;-122.806;2023-04-06T04:15:28;100905.38;;;24.76;33.64
50854;BME280;44154;45.506;-122.806;2023-04-06T04:17:54;100904.56;;;24.75;33.73
50854;BME280;44154;45.506;-122.806;2023-04-06T04:20:20;100912.69;;;24.70;33.85
50854;BME280;44154;45.506;-122.806;2023-04-06T04:22:47;100908.00;;;24.66;33.77
50854;BME280;44154;45.506;-122.806;2023-04-06T04:25:13;100906.66;;;24.68;33.95
50854;BME280;44154;45.506;-122.806;2023-04-06T04:27:39;100910.47;;;24.67;33.90
50854;BME280;44154;45.506;-122.806;2023-04-06T04:30:06;100912.38;;;24.67;34.04
50854;BME280;44154;45.506;-122.806;2023-04-06T04:32:32;100900.16;;;24.57;34.07
50854;BME280;44154;45.506;-122.806;2023-04-06T04:34:58;100908.00;;;24.66;33.99
50854;BME280;44154;45.506;-122.806;2023-04-06T04:37:24;100912.91;;;24.64;33.78
50854;BME280;44154;45.506;-122.806;2023-04-06T04:39:51;100915.03;;;24.62;34.15
50854;BME280;44154;45.506;-122.806;2023-04-06T04:42:17;100908.50;;;24.63;33.86
50854;BME280;44154;45.506;-122.806;2023-04-06T04:44:43;100903.75;;;24.58;33.67
50854;BME280;44154;45.506;-122.806;2023-04-06T04:47:09;100910.31;;;24.57;33.88
50854;BME280;44154;45.506;-122.806;2023-04-06T04:49:35;100901.28;;;24.56;33.86
50854;BME280;44154;45.506;-122.806;2023-04-06T04:52:01;100903.41;;;24.54;33.95
50854;BME280;44154;45.506;-122.806;2023-04-06T04:54:27;100912.13;;;24.51;33.82
50854;BME280;44154;45.506;-122.806;2023-04-06T04:56:53;100901.97;;;24.47;33.87
50854;BME280;44154;45.506;-122.806;2023-04-06T04:59:20;100903.88;;;24.46;33.71
50854;BME280;44154;45.506;-122.806;2023-04-06T05:01:46;100894.81;;;24.46;33.84
50854;BME280;44154;45.506;-122.806;2023-04-06T05:04:12;100899.22;;;24.47;33.75
50854;BME280;44154;45.506;-122.806;2023-04-06T05:06:38;100901.13;;;24.46;33.64
50854;BME280;44154;45.506;-122.806;2023-04-06T05:09:04;100896.47;;;24.47;33.29
50854;BME280;44154;45.506;-122.806;2023-04-06T05:11:30;100878.53;;;24.34;33.58
50854;BME280;44154;45.506;-122.806;2023-04-06T05:13:56;100892.84;;;24.41;33.53
50854;BME280;44154;45.506;-122.806;2023-04-06T05:16:22;100892.28;;;24.39;33.61
50854;BME280;44154;45.506;-122.806;2023-04-06T05:18:48;100893.00;;;24.34;33.62
50854;BME280;44154;45.506;-122.806;2023-04-06T05:21:15;100894.44;;;24.37;33.56
50854;BME280;44154;45.506;-122.806;2023-04-06T05:23:41;100877.78;;;24.21;33.74
50854;BME280;44154;45.506;-122.806;2023-04-06T05:26:07;100892.09;;;24.29;33.76
50854;BME280;44154;45.506;-122.806;2023-04-06T05:28:33;100884.41;;;24.25;33.60
50854;BME280;44154;45.506;-122.806;2023-04-06T05:30:59;100877.78;;;24.21;33.51
50854;BME280;44154;45.506;-122.806;2023-04-06T05:33:25;100882.13;;;24.17;34.25
50854;BME280;44154;45.506;-122.806;2023-04-06T05:35:51;100857.91;;;24.09;34.20
50854;BME280;44154;45.506;-122.806;2023-04-06T05:38:18;100849.94;;;24.24;34.20
50854;BME280;44154;45.506;-122.806;2023-04-06T05:40:44;100875.09;;;24.61;33.70
50854;BME280;44154;45.506;-122.806;2023-04-06T05:43:10;100869.50;;;24.72;33.52
50854;BME280;44154;45.506;-122.806;2023-04-06T05:45:36;100865.09;;;24.71;33.35
50854;BME280;44154;45.506;-122.806;2023-04-06T05:48:02;100863.19;;;24.72;33.26
50854;BME280;44154;45.506;-122.806;2023-04-06T05:50:28;100860.31;;;24.62;33.97
50854;BME280;44154;45.506;-122.806;2023-04-06T05:52:55;100859.13;;;24.57;33.93
50854;BME280;44154;45.506;-122.806;2023-04-06T05:55:21;100834.31;;;24.42;34.02
50854;BME280;44154;45.506;-122.806;2023-04-06T05:57:47;100856.00;;;24.49;33.86
50854;BME280;44154;45.506;-122.806;2023-04-06T06:00:13;100853.53;;;24.47;33.69
50854;BME280;44154;45.506;-122.806;2023-04-06T06:02:40;100852.88;;;24.40;33.69
50854;BME280;44154;45.506;-122.806;2023-04-06T06:05:08;100847.63;;;24.33;33.89
50854;BME280;44154;45.506;-122.806;2023-04-06T06:07:36;100849.06;;;24.19;34.47
50854;BME280;44154;45.506;-122.806;2023-04-06T06:10:02;100847.47;;;24.23;34.54
50854;BME280;44154;45.506;-122.806;2023-04-06T06:12:28;100842.53;;;24.42;34.20
50854;BME280;44154;45.506;-122.806;2023-04-06T06:14:54;100833.13;;;24.55;34.05
50854;BME280;44154;45.506;-122.806;2023-04-06T06:17:21;100834.72;;;24.73;33.59
50854;BME280;44154;45.506;-122.806;2023-04-06T06:19:47;100827.16;;;24.80;34.92
50854;BME280;44154;45.506;-122.806;2023-04-06T06:22:13;100827.22;;;24.85;34.33
50854;BME280;44154;45.506;-122.806;2023-04-06T06:24:39;100823.38;;;24.86;34.21
50854;BME280;44154;45.506;-122.806;2023-04-06T06:27:05;100823.09;;;24.83;34.25
50854;BME280;44154;45.506;-122.806;2023-04-06T06:29:33;100820.59;;;24.81;34.70
50854;BME280;44154;45.506;-122.806;2023-04-06T06:31:59;100816.47;;;24.79;34.61
50854;BME280;44154;45.506;-122.806;2023-04-06T06:34:25;100818.31;;;24.73;34.70
50854;BME280;44154;45.506;-122.806;2023-04-06T06:36:52;100820.41;;;24.66;34.79
50854;BME280;44154;45.506;-122.806;2023-04-06T06:39:20;100813.53;;;24.63;34.64
50854;BME280;44154;45.506;-122.806;2023-04-06T06:41:46;100805.94;;;24.48;35.04
50854;BME280;44154;45.506;-122.806;2023-04-06T06:44:12;100798.81;;;24.47;35.25
50854;BME280;44154;45.506;-122.806;2023-04-06T06:46:39;100804.91;;;24.54;36.62
50854;BME280;44154;45.506;-122.806;2023-04-06T06:49:05;100816.19;;;24.58;37.49
50854;BME280;44154;45.506;-122.806;2023-04-06T06:51:31;100810.06;;;24.68;36.60
50854;BME280;44154;45.506;-122.806;2023-04-06T06:53:58;100799.34;;;24.88;36.33
50854;BME280;44154;45.506;-122.806;2023-04-06T06:56:24;100800.50;;;24.98;36.02
50854;BME280;44154;45.506;-122.806;2023-04-06T06:58:52;100794.22;;;24.97;35.55
50854;BME280;44154;45.506;-122.806;2023-04-06T07:01:18;100803.78;;;24.94;35.76
50854;BME280;44154;45.506;-122.806;2023-04-06T07:03:44;100792.19;;;24.87;36.21
50854;BME280;44154;45.506;-122.806;2023-04-06T07:06:10;100799.34;;;24.88;36.58
50854;BME280;44154;45.506;-122.806;2023-04-06T07:08:36;100790.78;;;24.85;37.06
50854;BME280;44154;45.506;-122.806;2023-04-06T07:11:02;100769.56;;;24.70;37.01
50854;BME280;44154;45.506;-122.806;2023-04-06T07:13:28;100788.31;;;24.83;37.21
50854;BME280;44154;45.506;-122.806;2023-04-06T07:15:55;100787.16;;;24.79;37.53
50854;BME280;44154;45.506;-122.806;2023-04-06T07:18:22;100778.84;;;24.69;37.71
50854;BME280;44154;45.506;-122.806;2023-04-06T07:20:48;100782.19;;;24.71;37.64
50854;BME280;44154;45.506;-122.806;2023-04-06T07:23:14;100790.13;;;24.72;37.54
50854;BME280;44154;45.506;-122.806;2023-04-06T07:25:41;100790.81;;;24.63;37.97
50854;BME280;44154;45.506;-122.806;2023-04-06T07:28:07;100786.88;;;24.53;38.31
50854;BME280;44154;45.506;-122.806;2023-04-06T07:30:33;100790.56;;;24.64;37.69
50854;BME280;44154;45.506;-122.806;2023-04-06T07:32:59;100789.69;;;24.81;37.36
50854;BME280;44154;45.506;-122.806;2023-04-06T07:35:26;100786.72;;;24.87;36.98
50854;BME280;44154;45.506;-122.806;2023-04-06T07:37:53;100775.16;;;24.80;37.04
50854;BME280;44154;45.506;-122.806;2023-04-06T07:40:20;100783.44;;;24.85;36.75
50854;BME280;44154;45.506;-122.806;2023-04-06T07:42:46;100762.44;;;24.69;36.79
50854;BME280;44154;45.506;-122.806;2023-04-06T07:45:13;100781.94;;;24.77;36.94
50854;BME280;44154;45.506;-122.806;2023-04-06T07:47:39;100779.47;;;24.76;36.93
50854;BME280;44154;45.506;-122.806;2023-04-06T07:50:06;100777.00;;;24.74;37.04
50854;BME280;44154;45.506;-122.806;2023-04-06T07:52:32;100773.13;;;24.70;36.90
50854;BME280;44154;45.506;-122.806;2023-04-06T07:54:58;100740.09;;;24.55;37.06
50854;BME280;44154;45.506;-122.806;2023-04-06T07:57:25;100765.41;;;24.67;37.17
50854;BME280;44154;45.506;-122.806;2023-04-06T07:59:51;100761.25;;;24.59;37.11
50854;BME280;44154;45.506;-122.806;2023-04-06T08:02:17;100746.19;;;24.40;37.81
50854;BME280;44154;45.506;-122.806;2023-04-06T08:04:44;100743.97;;;24.37;37.48
50854;BME280;44154;45.506;-122.806;2023-04-06T08:07:10;100752.63;;;24.73;37.26
50854;BME280;44154;45.506;-122.806;2023-04-06T08:09:36;100743.44;;;24.84;38.32
50854;BME280;44154;45.506;-122.806;2023-04-06T08:12:03;100732.22;;;24.86;37.40
50854;BME280;44154;45.506;-122.806;2023-04-06T08:14:29;100729.22;;;24.87;37.13
50854;BME280;44154;45.506;-122.806;2023-04-06T08:16:55;100729.22;;;24.87;36.84
50854;BME280;44154;45.506;-122.806;2023-04-06T08:19:21;100704.22;;;24.73;36.57
50854;BME280;44154;45.506;-122.806;2023-04-06T08:21:48;100724.81;;;24.81;36.54
50854;BME280;44154;45.506;-122.806;2023-04-06T08:24:14;100727.22;;;24.77;36.60
50854;BME280;44154;45.506;-122.806;2023-04-06T08:26:41;100673.47;;;24.44;36.68
50854;BME280;44154;45.506;-122.806;2023-04-06T08:29:07;100719.22;;;24.71;36.66
50854;BME280;44154;45.506;-122.806;2023-04-06T08:31:36;100713.44;;;24.67;36.93
50854;BME280;44154;45.506;-122.806;2023-04-06T08:34:05;100710.91;;;24.61;37.15
50854;BME280;44154;45.506;-122.806;2023-04-06T08:36:31;100710.19;;;24.48;37.26
50854;BME280;44154;45.506;-122.806;2023-04-06T08:39:00;100711.88;;;24.54;37.13
50854;BME280;44154;45.506;-122.806;2023-04-06T08:41:27;100693.50;;;24.72;37.61
50854;BME280;44154;45.506;-122.806;2023-04-06T08:46:21;100694.22;;;24.89;37.63
50854;BME280;44154;45.506;-122.806;2023-04-06T08:48:47;100683.22;;;24.84;37.30
50854;BME280;44154;45.506;-122.806;2023-04-06T08:51:16;100681.25;;;24.80;37.13
50854;BME280;44154;45.506;-122.806;2023-04-06T08:53:43;100689.22;;;24.81;36.66
50854;BME280;44154;45.506;-122.806;2023-04-06T08:56:09;100681.25;;;24.80;36.71
50854;BME280;44154;45.506;-122.806;2023-04-06T08:58:39;100671.66;;;24.77;36.52
50854;BME280;44154;45.506;-122.806;2023-04-06T09:01:08;100671.09;;;24.75;36.32
50854;BME280;44154;45.506;-122.806;2023-04-06T09:03:38;100658.13;;;24.65;36.54
50854;BME280;44154;45.506;-122.806;2023-04-06T09:06:07;100669.66;;;24.67;36.87
50854;BME280;44154;45.506;-122.806;2023-04-06T09:08:35;100667.38;;;24.59;36.88
50854;BME280;44154;45.506;-122.806;2023-04-06T09:11:02;100657.41;;;24.48;36.97
50854;BME280;44154;45.506;-122.806;2023-04-06T09:13:29;100655.09;;;24.62;36.84
50854;BME280;44154;45.506;-122.806;2023-04-06T09:16:05;100653.06;;;24.79;37.72
50854;BME280;44154;45.506;-122.806;2023-04-06T09:18:33;100649.56;;;24.84;37.33
50854;BME280;44154;45.506;-122.806;2023-04-06T09:21:05;100588.75;;;24.54;37.24
50854;BME280;44154;45.506;-122.806;2023-04-06T09:23:31;100630.59;;;24.77;36.76
50854;BME280;44154;45.506;-122.806;2023-04-06T09:26:17;100590.38;;;24.50;36.65
50854;BME280;44154;45.506;-122.806;2023-04-06T09:31:32;100580.47;;;24.44;36.55
50854;BME280;44154;45.506;-122.806;2023-04-06T09:33:59;100635.81;;;24.79;36.60
50854;BME280;44154;45.506;-122.806;2023-04-06T09:36:35;100631.66;;;24.71;36.42
50854;BME280;44154;45.506;-122.806;2023-04-06T09:39:06;100636.28;;;24.70;36.49
50854;BME280;44154;45.506;-122.806;2023-04-06T09:41:34;100636.81;;;24.67;36.16
50854;BME280;44154;45.506;-122.806;2023-04-06T09:44:08;100636.41;;;24.58;36.56
50854;BME280;44154;45.506;-122.806;2023-04-06T09:46:44;100619.50;;;24.62;36.54
50854;BME280;44154;45.506;-122.806;2023-04-06T09:49:12;100626.25;;;24.81;36.52
50854;BME280;44154;45.506;-122.806;2023-04-06T09:51:46;100627.69;;;24.89;36.92
50854;BME280;44154;45.506;-122.806;2023-04-06T09:54:22;100621.41;;;24.93;36.72
50854;BME280;44154;45.506;-122.806;2023-04-06T10:00:06;100620.31;;;24.89;36.17
50854;BME280;44154;45.506;-122.806;2023-04-06T10:02:10;100616.19;;;24.87;36.34
50854;BME280;44154;45.506;-122.806;2023-04-06T10:04:43;100613.19;;;24.88;36.43
50854;BME280;44154;45.506;-122.806;2023-04-06T10:07:12;100613.72;;;24.85;36.12
50854;BME280;44154;45.506;-122.806;2023-04-06T10:09:43;100611.50;;;24.82;36.14
50854;BME280;44154;45.506;-122.806;2023-04-06T10:12:13;100581.78;;;24.64;36.38
50854;BME280;44154;45.506;-122.806;2023-04-06T10:14:39;100599.06;;;24.69;36.25
50854;BME280;44154;45.506;-122.806;2023-04-06T10:17:07;100593.34;;;24.71;36.09
50854;BME280;44154;45.506;-122.806;2023-04-06T10:22:49;100596.75;;;24.88;36.14
50854;BME280;44154;45.506;-122.806;2023-04-06T10:25:33;100585.59;;;24.95;36.15
50854;BME280;44154;45.506;-122.806;2023-04-06T10:28:08;100589.16;;;24.96;36.15
50854;BME280;44154;45.506;-122.806;2023-04-06T10:30:37;100577.59;;;24.93;36.03
50854;BME280;44154;45.506;-122.806;2023-04-06T10:33:13;100567.19;;;24.90;36.11
50854;BME280;44154;45.506;-122.806;2023-04-06T10:35:39;100567.78;;;24.92;35.77
50854;BME280;44154;45.506;-122.806;2023-04-06T10:38:06;100544.94;;;24.76;35.84
50854;BME280;44154;45.506;-122.806;2023-04-06T10:40:36;100564.44;;;24.85;35.80
50854;BME280;44154;45.506;-122.806;2023-04-06T10:43:13;100566.03;;;24.81;35.96
50854;BME280;44154;45.506;-122.806;2023-04-06T10:45:40;100560.00;;;24.79;35.72
50854;BME280;44154;45.506;-122.806;2023-04-06T10:48:15;100553.41;;;24.75;35.91
50854;BME280;44154;45.506;-122.806;2023-04-06T10:50:48;100560.44;;;24.66;35.96
50854;BME280;44154;45.506;-122.806;2023-04-06T10:55:50;100557.50;;;24.77;35.94
50854;BME280;44154;45.506;-122.806;2023-04-06T10:58:16;100538.13;;;24.84;35.88
50854;BME280;44154;45.506;-122.806;2023-04-06T11:00:47;100550.28;;;24.99;35.52
50854;BME280;44154;45.506;-122.806;2023-04-06T11:03:13;100552.50;;;25.02;35.66
50854;BME280;44154;45.506;-122.806;2023-04-06T11:05:44;100542.88;;;24.99;35.39
50854;BME280;44154;45.506;-122.806;2023-04-06T11:08:32;100540.69;;;24.96;35.55
50854;BME280;44154;45.506;-122.806;2023-04-06T11:11:08;100545.34;;;24.96;35.58
50854;BME280;44154;45.506;-122.806;2023-04-06T11:16:16;100531.84;;;24.84;35.45
50854;BME280;44154;45.506;-122.806;2023-04-06T11:19:01;100532.38;;;24.81;35.39
50854;BME280;44154;45.506;-122.806;2023-04-06T11:21:39;100516.66;;;24.66;35.47
50854;BME280;44154;45.506;-122.806;2023-04-06T11:24:23;100522.44;;;24.69;35.44
50854;BME280;44154;45.506;-122.806;2023-04-06T11:26:50;100521.50;;;24.58;35.57
50854;BME280;44154;45.506;-122.806;2023-04-06T11:29:19;100524.34;;;24.69;35.95
50854;BME280;44154;45.506;-122.806;2023-04-06T11:31:48;100521.75;;;24.89;35.58
50854;BME280;44154;45.506;-122.806;2023-04-06T11:34:20;100516.88;;;24.97;35.54
50854;BME280;44154;45.506;-122.806;2023-04-06T11:36:47;100488.59;;;24.86;35.24
50854;BME280;44154;45.506;-122.806;2023-04-06T11:39:19;100524.03;;;25.03;35.21
50854;BME280;44154;45.506;-122.806;2023-04-06T11:41:53;100518.50;;;24.98;35.14
50854;BME280;44154;45.506;-122.806;2023-04-06T11:44:39;100514.09;;;24.91;35.25
50854;BME280;44154;45.506;-122.806;2023-04-06T11:47:07;100509.16;;;24.88;35.35
50854;BME280;44154;45.506;-122.806;2023-04-06T11:49:37;100491.81;;;24.72;35.40
50854;BME280;44154;45.506;-122.806;2023-04-06T11:52:21;100510.50;;;24.81;35.40
50854;BME280;44154;45.506;-122.806;2023-04-06T11:54:49;100503.31;;;24.74;35.57
50854;BME280;44154;45.506;-122.806;2023-04-06T11:57:17;100495.38;;;24.73;35.44
50854;BME280;44154;45.506;-122.806;2023-04-06T11:59:43;100490.63;;;24.63;35.56
50854;BME280;44154;45.506;-122.806;2023-04-06T12:02:10;100483.53;;;24.62;35.43
50854;BME280;44154;45.506;-122.806;2023-04-06T12:04:37;100492.94;;;24.82;35.31
50854;BME280;44154;45.506;-122.806;2023-04-06T12:07:03;100471.91;;;24.82;35.32
50854;BME280;44154;45.506;-122.806;2023-04-06T12:09:30;100486.22;;;25.00;35.08
50854;BME280;44154;45.506;-122.806;2023-04-06T12:11:56;100472.50;;;24.94;35.03
50854;BME280;44154;45.506;-122.806;2023-04-06T12:14:23;100474.16;;;24.96;35.16
50854;BME280;44154;45.506;-122.806;2023-04-06T12:16:49;100485.38;;;24.94;35.08
50854;BME280;44154;45.506;-122.806;2023-04-06T12:19:16;100478.25;;;24.93;34.82
50854;BME280;44154;45.506;-122.806;2023-04-06T12:21:42;100480.97;;;24.88;35.13
50854;BME280;44154;45.506;-122.806;2023-04-06T12:24:08;100476.00;;;24.85;35.27
50854;BME280;44154;45.506;-122.806;2023-04-06T12:26:35;100475.72;;;24.81;35.17
50854;BME280;44154;45.506;-122.806;2023-04-06T12:29:03;100473.50;;;24.78;35.14
50854;BME280;44154;45.506;-122.806;2023-04-06T12:31:35;100468.00;;;24.73;35.22
50854;BME280;44154;45.506;-122.806;2023-04-06T12:34:02;100445.41;;;24.55;35.49
50854;BME280;44154;45.506;-122.806;2023-04-06T12:36:29;100454.59;;;24.71;35.37
50854;BME280;44154;45.506;-122.806;2023-04-06T12:38:55;100459.38;;;24.97;34.90